Jacksonville, Florida
Current Conditions -  °F | °C
As of 11:56 AM on Friday 31 Oct 2014 (Local Time) from KJAX Reporting Station
Few Clouds Few Clouds  
Wind Chill: 73°   Ceiling: Unl
Heat Index: 73°   Visibility: 10mi
Dew Point: 55°   Wind: 8mph
Humidity: 53%   Direction: 340°NNW
Pressure: 29.87"   Gusts: NA
Location:  30.32°N, 81.66°W
Report Text: KJAX 311556Z 34007KT 10SM FEW040 23/13 A2987 RMK AO2 SLP115 T02280128
Loading
Personal Weather Stations






























Interactive Weather Map New forecast layout! Learn more

10-Day Weather Forecast

Advertisements
Track Severe Weather on mobile